createdAt,value
2022-07-27T00:01:51.370Z,99040
2022-07-27T00:03:46.482Z,99040
2022-07-27T00:05:46.688Z,99040
2022-07-27T00:07:47.443Z,99040
2022-07-27T00:09:47.477Z,99040
2022-07-27T00:11:47.884Z,99040
2022-07-27T00:13:48.282Z,99040
2022-07-27T00:15:48.907Z,99040
2022-07-27T00:17:48.927Z,99040
2022-07-27T00:19:49.499Z,99040
2022-07-27T00:21:49.688Z,99040
2022-07-27T00:23:49.999Z,99040
2022-07-27T00:25:50.410Z,99040
2022-07-27T00:27:50.797Z,99040
2022-07-27T00:29:51.228Z,99040
2022-07-27T00:31:51.585Z,99040
2022-07-27T00:33:51.882Z,99040
2022-07-27T00:35:52.273Z,99040
2022-07-27T00:37:52.893Z,99040
2022-07-27T00:39:52.939Z,99040
2022-07-27T00:41:53.370Z,99040
2022-07-27T00:43:55.976Z,99040
2022-07-27T00:45:54.136Z,99040
2022-07-27T00:47:55.191Z,99040
2022-07-27T00:49:54.768Z,99040
2022-07-27T00:51:55.407Z,99040
2022-07-27T00:53:56.078Z,99040
2022-07-27T00:55:55.888Z,99040
2022-07-27T00:57:59.038Z,99040
2022-07-27T00:59:56.658Z,99040
2022-07-27T01:01:57.505Z,99050
2022-07-27T01:03:57.354Z,99050
2022-07-27T01:05:58.243Z,99050
2022-07-27T01:07:58.592Z,99050
2022-07-27T01:09:59.901Z,99050
2022-07-27T01:11:58.947Z,99050
2022-07-27T01:13:59.314Z,99050
2022-07-27T01:16:02.734Z,99050
2022-07-27T01:17:59.976Z,99050
2022-07-27T01:20:00.325Z,99050
2022-07-27T01:22:00.773Z,99050
2022-07-27T01:24:01.266Z,99060
2022-07-27T01:26:02.844Z,99060
2022-07-27T01:28:01.778Z,99060
2022-07-27T01:30:02.641Z,99060
2022-07-27T01:32:03.714Z,99060
2022-07-27T01:34:03.996Z,99060
2022-07-27T01:36:03.838Z,99060
2022-07-27T01:38:04.309Z,99060
2022-07-27T01:40:04.818Z,99060
2022-07-27T01:42:04.445Z,99060
2022-07-27T01:44:05.132Z,99060
2022-07-27T01:46:06.282Z,99060
2022-07-27T01:48:05.887Z,99060
2022-07-27T01:50:06.346Z,99060
2022-07-27T01:52:05.945Z,99060
2022-07-27T01:54:06.309Z,99070
2022-07-27T01:56:09.246Z,99070
2022-07-27T01:58:07.668Z,99070
2022-07-27T02:00:12.653Z,99070
2022-07-27T02:02:07.958Z,99070
2022-07-27T02:04:08.176Z,99070
2022-07-27T02:06:09.414Z,99070
2022-07-27T02:08:09.218Z,99070
2022-07-27T02:10:10.052Z,99070
2022-07-27T02:12:09.583Z,99070
2022-07-27T02:14:09.920Z,99080
2022-07-27T02:16:16.740Z,99080
2022-07-27T02:18:26.762Z,99080
2022-07-27T02:20:12.958Z,99080
2022-07-27T02:22:11.416Z,99080
2022-07-27T02:24:11.857Z,99080
2022-07-27T02:26:12.329Z,99080
2022-07-27T02:28:12.493Z,99080
2022-07-27T02:30:13.138Z,99080
2022-07-27T02:32:13.246Z,99080
2022-07-27T02:34:13.482Z,99080
2022-07-27T02:36:13.847Z,99080
2022-07-27T02:38:14.454Z,99080
2022-07-27T02:40:15.478Z,99080
2022-07-27T02:42:14.878Z,99080
2022-07-27T02:44:15.281Z,99080
2022-07-27T02:46:15.653Z,99080
2022-07-27T02:48:15.927Z,99080
2022-07-27T02:50:16.268Z,99080
2022-07-27T02:52:16.623Z,99090
2022-07-27T02:54:17.119Z,99090
2022-07-27T02:56:17.349Z,99090
2022-07-27T02:58:17.681Z,99090
2022-07-27T03:00:18.318Z,99090
2022-07-27T03:02:18.434Z,99090
2022-07-27T03:04:18.927Z,99090
2022-07-27T03:06:19.275Z,99090
2022-07-27T03:08:19.789Z,99090
2022-07-27T03:10:19.999Z,99090
2022-07-27T03:12:21.450Z,99090
2022-07-27T03:14:20.639Z,99090
2022-07-27T03:16:21.191Z,99090
2022-07-27T03:18:21.492Z,99090
2022-07-27T03:20:21.814Z,99090
2022-07-27T03:22:22.158Z,99090
2022-07-27T03:24:22.596Z,99090
2022-07-27T03:26:22.973Z,99090
2022-07-27T03:28:23.497Z,99080
2022-07-27T03:30:23.879Z,99080
2022-07-27T03:32:24.365Z,99080
2022-07-27T03:34:25.247Z,99080
2022-07-27T03:36:25.124Z,99080
2022-07-27T03:38:25.767Z,99080
2022-07-27T03:40:26.077Z,99080
2022-07-27T03:42:26.606Z,99080
2022-07-27T03:44:26.924Z,99080
2022-07-27T03:46:27.588Z,99080
2022-07-27T03:48:28.077Z,99080
2022-07-27T03:50:28.435Z,99080
2022-07-27T03:52:29.070Z,99080
2022-07-27T03:54:29.628Z,99080
2022-07-27T03:56:30.225Z,99080
2022-07-27T03:58:30.739Z,99080
2022-07-27T04:00:31.359Z,99080
2022-07-27T04:02:32.060Z,99080
2022-07-27T04:04:32.694Z,99080
2022-07-27T04:06:33.326Z,99080
2022-07-27T04:07:17.548Z,99080
2022-07-27T04:07:25.996Z,99080
2022-07-27T04:08:43.223Z,99080
2022-07-27T04:08:49.373Z,99080
2022-07-27T04:10:34.678Z,99080
2022-07-27T04:12:36.018Z,99080
2022-07-27T04:14:35.936Z,99080
2022-07-27T04:16:36.642Z,99090
2022-07-27T04:18:37.143Z,99090
2022-07-27T04:20:37.778Z,99100
2022-07-27T04:22:39.015Z,99100
2022-07-27T04:24:39.167Z,99110
2022-07-27T04:26:39.905Z,99110
2022-07-27T04:28:40.631Z,99110
2022-07-27T04:30:41.281Z,99110
2022-07-27T04:32:41.896Z,99110
2022-07-27T04:34:42.594Z,99110
2022-07-27T04:36:43.426Z,99110
2022-07-27T04:38:44.006Z,99110
2022-07-27T04:40:44.790Z,99110
2022-07-27T04:42:48.740Z,99110
2022-07-27T04:44:45.968Z,99110
2022-07-27T04:46:46.709Z,99110
2022-07-27T04:48:49.062Z,99110
2022-07-27T04:50:48.109Z,99110
2022-07-27T04:52:49.303Z,99110
2022-07-27T04:54:51.077Z,99110
2022-07-27T04:56:50.179Z,99110
2022-07-27T04:58:50.885Z,99110
2022-07-27T05:00:51.731Z,99110
2022-07-27T05:02:52.472Z,99110
2022-07-27T05:04:53.240Z,99110
2022-07-27T05:06:53.811Z,99110
2022-07-27T05:08:54.484Z,99110
2022-07-27T05:10:55.481Z,99110
2022-07-27T05:12:55.941Z,99110
2022-07-27T05:14:56.756Z,99110
2022-07-27T05:16:57.502Z,99110
2022-07-27T05:18:58.208Z,99110
2022-07-27T05:20:58.943Z,99110
2022-07-27T05:22:59.671Z,99110
2022-07-27T05:25:00.403Z,99110
2022-07-27T05:27:01.185Z,99110
2022-07-27T05:29:01.896Z,99110
2022-07-27T05:31:04.564Z,99110
2022-07-27T05:33:03.516Z,99100
2022-07-27T05:35:05.212Z,99100
2022-07-27T05:37:04.961Z,99100
2022-07-27T05:39:08.176Z,99100
2022-07-27T05:41:06.945Z,99100
2022-07-27T05:43:07.252Z,99100
2022-07-27T05:45:09.146Z,99100
2022-07-27T05:47:11.385Z,99100
2022-07-27T05:49:10.247Z,99100
2022-07-27T05:51:10.427Z,99100
2022-07-27T05:53:11.221Z,99100
2022-07-27T05:55:12.482Z,99100
2022-07-27T05:57:12.821Z,99100
2022-07-27T05:59:13.976Z,99100
2022-07-27T06:01:14.873Z,99100
2022-07-27T06:03:15.250Z,99100
2022-07-27T06:05:17.707Z,99100
2022-07-27T06:07:16.851Z,99100
2022-07-27T06:09:17.784Z,99100
2022-07-27T06:11:18.746Z,99100
2022-07-27T06:13:19.126Z,99100
2022-07-27T06:15:20.100Z,99100
2022-07-27T06:17:20.749Z,99100
2022-07-27T06:19:21.670Z,99100
2022-07-27T06:21:22.531Z,99100
2022-07-27T06:23:23.386Z,99100
2022-07-27T06:25:24.174Z,99100
2022-07-27T06:27:29.596Z,99100
2022-07-27T06:29:26.072Z,99100
2022-07-27T06:31:27.303Z,99100
2022-07-27T06:33:27.471Z,99100
2022-07-27T06:35:28.175Z,99100
2022-07-27T06:37:30.230Z,99100
2022-07-27T06:39:30.234Z,99100
2022-07-27T06:41:31.367Z,99100
2022-07-27T06:43:32.711Z,99100
2022-07-27T06:45:32.362Z,99100
2022-07-27T06:47:32.983Z,99100
2022-07-27T06:49:33.874Z,99100
2022-07-27T06:51:34.810Z,99100
2022-07-27T06:53:36.503Z,99100
2022-07-27T06:55:36.186Z,99110
2022-07-27T06:57:36.934Z,99110
2022-07-27T06:59:43.270Z,99110
2022-07-27T07:01:38.595Z,99110
2022-07-27T07:03:39.408Z,99110
2022-07-27T07:05:43.368Z,99110
2022-07-27T07:07:40.990Z,99120
2022-07-27T07:09:41.818Z,99120
2022-07-27T07:11:42.871Z,99120
2022-07-27T07:13:45.182Z,99120
2022-07-27T07:15:44.373Z,99120
2022-07-27T07:17:45.065Z,99120
2022-07-27T07:19:45.802Z,99120
2022-07-27T07:21:46.908Z,99120
2022-07-27T07:23:47.459Z,99120
2022-07-27T07:25:48.289Z,99120
2022-07-27T07:27:49.310Z,99120
2022-07-27T07:29:49.795Z,99120
2022-07-27T07:31:50.782Z,99120
2022-07-27T07:33:51.310Z,99120
2022-07-27T07:36:12.610Z,99120
2022-07-27T07:37:52.825Z,99120
2022-07-27T07:39:53.865Z,99120
2022-07-27T07:41:54.489Z,99120
2022-07-27T07:43:55.154Z,99120
2022-07-27T07:45:55.925Z,99120
2022-07-27T07:48:00.005Z,99120
2022-07-27T07:49:57.240Z,99120
2022-07-27T07:51:59.324Z,99120
2022-07-27T07:53:59.503Z,99120
2022-07-27T07:55:59.438Z,99130
2022-07-27T07:58:00.867Z,99130
2022-07-27T08:00:11.959Z,99130
2022-07-27T08:02:02.667Z,99120
2022-07-27T08:04:03.630Z,99120
2022-07-27T08:06:03.458Z,99120
2022-07-27T08:08:04.578Z,99120
2022-07-27T08:10:06.226Z,99120
2022-07-27T08:12:06.782Z,99120
2022-07-27T08:14:06.971Z,99120
2022-07-27T08:16:06.444Z,99120
2022-07-27T08:18:07.170Z,99120
2022-07-27T08:20:09.147Z,99120
2022-07-27T08:22:08.490Z,99120
2022-07-27T08:24:09.285Z,99120
2022-07-27T08:26:09.900Z,99120
2022-07-27T08:28:10.574Z,99120
2022-07-27T08:30:11.842Z,99120
2022-07-27T08:32:12.169Z,99120
2022-07-27T08:34:12.568Z,99120
2022-07-27T08:36:13.345Z,99110
2022-07-27T08:38:14.001Z,99110
2022-07-27T08:42:17.475Z,99110
2022-07-27T08:44:16.604Z,99110
2022-07-27T08:46:17.711Z,99110
2022-07-27T08:48:17.628Z,99110
2022-07-27T08:50:20.295Z,99110
2022-07-27T08:52:19.638Z,99110
2022-07-27T08:54:19.637Z,99110
2022-07-27T08:56:20.286Z,99110
2022-07-27T08:58:20.814Z,99110
2022-07-27T09:00:21.616Z,99110
2022-07-27T09:02:22.222Z,99110
2022-07-27T09:04:22.929Z,99110
2022-07-27T09:06:39.434Z,99110
2022-07-27T09:08:25.826Z,99110
2022-07-27T09:10:29.792Z,99110
2022-07-27T09:12:28.130Z,99110
2022-07-27T09:14:30.596Z,99110
2022-07-27T09:17:02.949Z,99110
2022-07-27T09:18:29.416Z,99110
2022-07-27T09:20:28.312Z,99110
2022-07-27T09:22:41.181Z,99110
2022-07-27T09:24:46.083Z,99110
2022-07-27T09:26:33.311Z,99110
2022-07-27T09:28:31.117Z,99110
2022-07-27T09:30:33.127Z,99110
2022-07-27T09:32:32.800Z,99110
2022-07-27T09:34:33.134Z,99110
2022-07-27T09:36:48.105Z,99110
2022-07-27T09:38:34.694Z,99110
2022-07-27T09:40:35.692Z,99110
2022-07-27T09:43:14.604Z,99110
2022-07-27T09:44:43.566Z,99110
2022-07-27T09:46:39.416Z,99110
2022-07-27T09:48:38.171Z,99110
2022-07-27T09:50:53.083Z,99110
2022-07-27T09:52:39.394Z,99110
2022-07-27T09:54:43.338Z,99110
2022-07-27T09:56:41.202Z,99110
2022-07-27T09:58:44.357Z,99110
2022-07-27T10:00:55.441Z,99110
2022-07-27T10:02:43.188Z,99110
2022-07-27T10:04:44.011Z,99110
2022-07-27T10:07:01.798Z,99110
2022-07-27T10:08:46.386Z,99110
2022-07-27T10:10:45.871Z,99110
2022-07-27T10:12:53.680Z,99110
2022-07-27T10:14:46.975Z,99110
2022-07-27T10:16:49.797Z,99110
2022-07-27T10:18:57.924Z,99110
2022-07-27T10:20:50.195Z,99100
2022-07-27T10:22:52.572Z,99100
2022-07-27T10:24:58.453Z,99100
2022-07-27T10:26:51.421Z,99090
2022-07-27T10:28:54.359Z,99090
2022-07-27T10:31:14.797Z,99090
2022-07-27T10:32:52.795Z,99090
2022-07-27T10:34:53.677Z,99090
2022-07-27T10:36:54.152Z,99090
2022-07-27T10:38:57.135Z,99090
2022-07-27T10:41:19.833Z,99090
2022-07-27T10:43:06.333Z,99090
2022-07-27T10:44:59.595Z,99090
2022-07-27T10:46:59.350Z,99090
2022-07-27T10:49:16.967Z,99090
2022-07-27T10:50:58.879Z,99090
2022-07-27T10:53:03.103Z,99090
2022-07-27T10:55:05.113Z,99090
2022-07-27T10:57:02.307Z,99090
2022-07-27T10:59:01.446Z,99090
2022-07-27T11:01:04.170Z,99090
2022-07-27T11:03:05.220Z,99090
2022-07-27T11:05:04.579Z,99090
2022-07-27T11:07:23.931Z,99090
2022-07-27T11:09:53.421Z,99090
2022-07-27T11:11:07.424Z,99090
2022-07-27T11:13:09.763Z,99090
2022-07-27T11:15:07.345Z,99090
2022-07-27T11:17:50.950Z,99090
2022-07-27T11:19:08.227Z,99090
2022-07-27T11:21:25.424Z,99090
2022-07-27T11:25:10.153Z,99090
2022-07-27T11:27:16.391Z,99090
2022-07-27T11:29:13.206Z,99090
2022-07-27T11:31:20.025Z,99080
2022-07-27T11:33:12.778Z,99080
2022-07-27T11:35:19.237Z,99080
2022-07-27T11:37:15.886Z,99080
2022-07-27T11:39:43.694Z,99080
2022-07-27T11:42:04.735Z,99080
2022-07-27T11:43:33.621Z,99080
2022-07-27T11:45:28.150Z,99080
2022-07-27T11:47:18.917Z,99070
2022-07-27T11:49:23.322Z,99070
2022-07-27T11:51:18.944Z,99070
2022-07-27T11:53:20.080Z,99070
2022-07-27T11:55:20.278Z,99070
2022-07-27T11:57:29.393Z,99070
2022-07-27T11:59:22.487Z,99070
2022-07-27T12:01:26.877Z,99070
2022-07-27T12:03:23.110Z,99070
2022-07-27T12:05:23.395Z,99070
2022-07-27T12:07:30.013Z,99070
2022-07-27T12:09:25.634Z,99070
2022-07-27T12:11:34.055Z,99070
2022-07-27T12:13:31.816Z,99070
2022-07-27T12:15:45.177Z,99070
2022-07-27T12:17:28.457Z,99070
2022-07-27T12:19:28.099Z,99070
2022-07-27T12:21:31.959Z,99070
2022-07-27T12:23:29.069Z,99060
2022-07-27T12:25:29.720Z,99060
2022-07-27T12:27:30.355Z,99050
2022-07-27T12:29:31.095Z,99040
2022-07-27T12:31:32.168Z,99040
2022-07-27T12:33:34.282Z,99040
2022-07-27T12:35:45.768Z,99040
2022-07-27T12:37:33.401Z,99040
2022-07-27T12:39:34.102Z,99040
2022-07-27T12:41:34.710Z,99040
2022-07-27T12:43:35.863Z,99040
2022-07-27T12:45:37.598Z,99040
2022-07-27T12:47:36.585Z,99040
2022-07-27T12:49:37.323Z,99030
2022-07-27T12:51:37.756Z,99030
2022-07-27T12:53:38.546Z,99020
2022-07-27T12:55:40.926Z,99010
2022-07-27T12:57:55.263Z,99010
2022-07-27T12:59:40.321Z,99010
2022-07-27T13:01:40.993Z,99010
2022-07-27T13:03:41.534Z,99010
2022-07-27T13:05:42.366Z,99010
2022-07-27T13:07:44.486Z,99010
2022-07-27T13:10:01.998Z,99010
2022-07-27T13:11:47.896Z,99010
2022-07-27T13:13:44.908Z,99010
2022-07-27T13:15:45.311Z,99010
2022-07-27T13:17:46.900Z,99010
2022-07-27T13:19:47.038Z,99010
2022-07-27T13:21:47.233Z,99010
2022-07-27T13:23:47.905Z,99010
2022-07-27T13:25:48.559Z,99010
2022-07-27T13:27:49.433Z,99010
2022-07-27T13:29:49.703Z,99010
2022-07-27T13:31:56.937Z,99010
2022-07-27T13:33:50.946Z,99010
2022-07-27T13:35:59.014Z,99010
2022-07-27T13:37:52.368Z,99010
2022-07-27T13:39:52.987Z,99010
2022-07-27T13:41:54.973Z,99010
2022-07-27T13:43:54.186Z,99010
2022-07-27T13:45:54.944Z,99010
2022-07-27T13:47:55.310Z,99010
2022-07-27T13:49:56.174Z,99020
2022-07-27T13:51:56.589Z,99020
2022-07-27T13:53:57.246Z,99020
2022-07-27T13:55:57.868Z,99020
2022-07-27T13:57:58.507Z,99020
2022-07-27T13:59:59.108Z,99020
2022-07-27T14:01:59.965Z,99010
2022-07-27T14:04:00.733Z,99010
2022-07-27T14:06:01.032Z,99010
2022-07-27T14:08:01.972Z,99010
2022-07-27T14:10:02.902Z,99010
2022-07-27T14:12:03.001Z,99010
2022-07-27T14:14:03.939Z,99010
2022-07-27T14:16:04.644Z,99010
2022-07-27T14:18:05.012Z,99010
2022-07-27T14:20:07.049Z,99010
2022-07-27T14:22:06.045Z,99010
2022-07-27T14:24:06.936Z,99010
2022-07-27T14:26:09.044Z,99010
2022-07-27T14:28:07.918Z,99010
2022-07-27T14:30:09.690Z,99010
2022-07-27T14:32:09.329Z,99010
2022-07-27T14:34:09.826Z,99010
2022-07-27T14:36:10.486Z,99010
2022-07-27T14:38:11.246Z,99010
2022-07-27T14:40:12.815Z,99010
2022-07-27T14:42:12.357Z,99010
2022-07-27T14:44:13.076Z,99010
2022-07-27T14:46:13.751Z,99010
2022-07-27T14:48:22.782Z,99020
2022-07-27T14:50:14.805Z,99030
2022-07-27T14:52:15.693Z,99030
2022-07-27T14:54:16.272Z,99030
2022-07-27T14:56:16.828Z,99040
2022-07-27T14:58:17.392Z,99040
2022-07-27T15:00:18.610Z,99040
2022-07-27T15:02:18.747Z,99040
2022-07-27T15:04:19.181Z,99040
2022-07-27T15:06:19.864Z,99030
2022-07-27T15:08:20.781Z,99020
2022-07-27T15:10:21.141Z,99010
2022-07-27T15:12:21.938Z,99010
2022-07-27T15:14:22.522Z,99010
2022-07-27T15:16:23.075Z,99010
2022-07-27T15:18:23.592Z,99010
2022-07-27T15:20:24.621Z,99010
2022-07-27T15:22:24.911Z,99010
2022-07-27T15:24:25.600Z,99010
2022-07-27T15:26:26.169Z,99010
2022-07-27T15:28:26.793Z,99010
2022-07-27T15:30:27.600Z,99010
2022-07-27T15:32:28.031Z,99010
2022-07-27T15:34:28.793Z,99010
2022-07-27T15:36:32.519Z,99010
2022-07-27T15:38:30.008Z,99010
2022-07-27T15:40:30.598Z,99010
2022-07-27T15:42:36.064Z,99010
2022-07-27T15:44:32.430Z,99010
2022-07-27T15:46:33.046Z,99010
2022-07-27T15:48:33.552Z,99010
2022-07-27T15:50:33.804Z,99010
2022-07-27T15:52:34.315Z,99010
2022-07-27T15:54:42.214Z,99010
2022-07-27T15:56:35.454Z,99010
2022-07-27T15:58:36.114Z,99020
2022-07-27T16:00:40.896Z,99020
2022-07-27T16:02:37.418Z,99020
2022-07-27T16:04:38.019Z,99020
2022-07-27T16:06:39.496Z,99020
2022-07-27T16:08:39.259Z,99020
2022-07-27T16:10:41.783Z,99020
2022-07-27T16:12:40.441Z,99010
2022-07-27T16:14:40.995Z,99020
2022-07-27T16:16:41.666Z,99020
2022-07-27T16:18:42.213Z,99020
2022-07-27T16:20:43.123Z,99020
2022-07-27T16:22:43.425Z,99020
2022-07-27T16:24:44.014Z,99020
2022-07-27T16:26:44.615Z,99020
2022-07-27T16:28:47.424Z,99020
2022-07-27T16:30:45.806Z,99020
2022-07-27T16:32:46.386Z,99020
2022-07-27T16:34:47.001Z,99020
2022-07-27T16:36:47.585Z,99020
2022-07-27T16:38:50.182Z,99030
2022-07-27T16:40:48.784Z,99040
2022-07-27T16:42:49.386Z,99040
2022-07-27T16:44:49.997Z,99040
2022-07-27T16:46:50.651Z,99040
2022-07-27T16:48:51.174Z,99040
2022-07-27T16:50:51.666Z,99040
2022-07-27T16:52:52.367Z,99040
2022-07-27T16:54:53.035Z,99050
2022-07-27T16:56:53.450Z,99050
2022-07-27T16:58:54.036Z,99050
2022-07-27T17:00:54.865Z,99050
2022-07-27T17:02:55.238Z,99060
2022-07-27T17:04:56.434Z,99060
2022-07-27T17:06:56.454Z,99060
2022-07-27T17:08:57.070Z,99060
2022-07-27T17:10:57.555Z,99060
2022-07-27T17:12:58.167Z,99060
2022-07-27T17:14:58.782Z,99060
2022-07-27T17:16:59.332Z,99060
2022-07-27T17:18:59.866Z,99060
2022-07-27T17:21:00.700Z,99060
2022-07-27T17:23:01.038Z,99050
2022-07-27T17:25:01.531Z,99050
2022-07-27T17:27:02.129Z,99050
2022-07-27T17:29:02.885Z,99050
2022-07-27T17:31:04.316Z,99050
2022-07-27T17:33:03.890Z,99050
2022-07-27T17:35:05.113Z,99040
2022-07-27T17:37:04.907Z,99040
2022-07-27T17:39:05.666Z,99040
2022-07-27T17:41:06.111Z,99040
2022-07-27T17:43:06.605Z,99040
2022-07-27T17:45:08.518Z,99040
2022-07-27T17:47:07.726Z,99030
2022-07-27T17:49:08.358Z,99030
2022-07-27T17:51:08.989Z,99030
2022-07-27T17:53:11.017Z,99030
2022-07-27T17:55:10.074Z,99030
2022-07-27T17:57:10.599Z,99030
2022-07-27T17:59:36.096Z,99030
2022-07-27T18:01:11.820Z,99030
2022-07-27T18:03:12.154Z,99030
2022-07-27T18:05:12.707Z,99030
2022-07-27T18:07:13.332Z,99030
2022-07-27T18:09:14.344Z,99030
2022-07-27T18:11:14.294Z,99030
2022-07-27T18:13:14.822Z,99030
2022-07-27T18:15:15.778Z,99030
2022-07-27T18:17:15.977Z,99030
2022-07-27T18:19:17.023Z,99030
2022-07-27T18:21:17.337Z,99030
2022-07-27T18:23:17.631Z,99030
2022-07-27T18:25:18.150Z,99030
2022-07-27T18:27:18.648Z,99030
2022-07-27T18:29:19.195Z,99030
2022-07-27T18:31:20.097Z,99030
2022-07-27T18:33:20.637Z,99030
2022-07-27T18:35:20.773Z,99040
2022-07-27T18:37:21.484Z,99040
2022-07-27T18:39:26.027Z,99040
2022-07-27T18:41:22.405Z,99040
2022-07-27T18:43:22.859Z,99050
2022-07-27T18:45:23.541Z,99050
2022-07-27T18:47:24.097Z,99050
2022-07-27T18:49:24.531Z,99060
2022-07-27T18:51:25.033Z,99060
2022-07-27T18:53:25.520Z,99060
2022-07-27T18:55:26.259Z,99070
2022-07-27T18:57:26.551Z,99070
2022-07-27T18:59:27.125Z,99070
2022-07-27T19:01:27.667Z,99070
2022-07-27T19:03:28.102Z,99070
2022-07-27T19:05:40.803Z,99070
2022-07-27T19:07:29.229Z,99070
2022-07-27T19:09:29.606Z,99070
2022-07-27T19:11:30.110Z,99070
2022-07-27T19:13:30.622Z,99070
2022-07-27T19:15:31.119Z,99070
2022-07-27T19:17:31.621Z,99080
2022-07-27T19:19:32.050Z,99080
2022-07-27T19:21:32.899Z,99090
2022-07-27T19:23:33.217Z,99090
2022-07-27T19:25:34.326Z,99090
2022-07-27T19:27:38.328Z,99090
2022-07-27T19:29:34.643Z,99090
2022-07-27T19:31:35.241Z,99090
2022-07-27T19:33:35.630Z,99090
2022-07-27T19:35:36.155Z,99090
2022-07-27T19:37:36.715Z,99090
2022-07-27T19:40:02.559Z,99090
2022-07-27T19:41:37.682Z,99100
2022-07-27T19:43:38.080Z,99100
2022-07-27T19:45:39.826Z,99100
2022-07-27T19:47:39.054Z,99100
2022-07-27T19:49:39.521Z,99100
2022-07-27T19:51:40.010Z,99100
2022-07-27T19:53:40.584Z,99100
2022-07-27T19:55:40.970Z,99090
2022-07-27T19:57:41.432Z,99090
2022-07-27T19:59:55.639Z,99090
2022-07-27T20:01:42.468Z,99090
2022-07-27T20:03:52.600Z,99090
2022-07-27T20:05:43.541Z,99090
2022-07-27T20:07:44.782Z,99090
2022-07-27T20:09:44.319Z,99090
2022-07-27T20:11:44.770Z,99090
2022-07-27T20:13:45.207Z,99100
2022-07-27T20:15:45.778Z,99100
2022-07-27T20:17:46.184Z,99100
2022-07-27T20:19:46.640Z,99100
2022-07-27T20:21:47.320Z,99120
2022-07-27T20:23:47.562Z,99120
2022-07-27T20:25:48.336Z,99120
2022-07-27T20:27:48.559Z,99120
2022-07-27T20:29:49.065Z,99120
2022-07-27T20:31:49.781Z,99150
2022-07-27T20:33:49.903Z,99190
2022-07-27T20:35:50.253Z,99190
2022-07-27T20:37:50.771Z,99200
2022-07-27T20:39:51.252Z,99200
2022-07-27T20:41:51.624Z,99200
2022-07-27T20:43:52.737Z,99210
2022-07-27T20:45:52.975Z,99210
2022-07-27T20:47:52.968Z,99210
2022-07-27T20:49:53.427Z,99210
2022-07-27T20:51:53.880Z,99210
2022-07-27T20:53:54.352Z,99210
2022-07-27T20:55:54.824Z,99210
2022-07-27T20:57:55.295Z,99210
2022-07-27T20:59:55.760Z,99210
2022-07-27T21:01:56.243Z,99210
2022-07-27T21:03:56.758Z,99210
2022-07-27T21:05:57.211Z,99210
2022-07-27T21:07:57.677Z,99210
2022-07-27T21:09:58.178Z,99200
2022-07-27T21:11:58.677Z,99200
2022-07-27T21:13:59.071Z,99200
2022-07-27T21:15:59.603Z,99200
2022-07-27T21:18:00.051Z,99200
2022-07-27T21:20:00.449Z,99200
2022-07-27T21:22:01.290Z,99200
2022-07-27T21:24:01.452Z,99190
2022-07-27T21:26:01.969Z,99190
2022-07-27T21:28:02.512Z,99190
2022-07-27T21:30:03.522Z,99190
2022-07-27T21:32:03.622Z,99190
2022-07-27T21:34:04.231Z,99190
2022-07-27T21:36:04.334Z,99180
2022-07-27T21:38:04.684Z,99180
2022-07-27T21:40:06.344Z,99180
2022-07-27T21:42:05.720Z,99180
2022-07-27T21:44:06.230Z,99180
2022-07-27T21:46:06.798Z,99190
2022-07-27T21:48:06.938Z,99190
2022-07-27T21:50:08.472Z,99190
2022-07-27T21:52:09.308Z,99190
2022-07-27T21:54:08.386Z,99190
2022-07-27T21:56:08.746Z,99190
2022-07-27T21:58:09.283Z,99190
2022-07-27T22:00:12.945Z,99190
2022-07-27T22:02:10.205Z,99190
2022-07-27T22:04:10.978Z,99190
2022-07-27T22:06:11.401Z,99190
2022-07-27T22:08:11.809Z,99190
2022-07-27T22:10:11.904Z,99190
2022-07-27T22:12:12.415Z,99190
2022-07-27T22:14:13.424Z,99190
2022-07-27T22:16:13.487Z,99190
2022-07-27T22:18:13.752Z,99190
2022-07-27T22:20:14.194Z,99180
2022-07-27T22:22:14.966Z,99180
2022-07-27T22:24:15.742Z,99170
2022-07-27T22:26:15.635Z,99170
2022-07-27T22:28:16.235Z,99170
2022-07-27T22:30:16.434Z,99170
2022-07-27T22:32:17.155Z,99170
2022-07-27T22:34:17.741Z,99170
2022-07-27T22:36:18.018Z,99170
2022-07-27T22:38:18.254Z,99170
2022-07-27T22:40:18.763Z,99170
2022-07-27T22:42:19.192Z,99170
2022-07-27T22:44:20.337Z,99170
2022-07-27T22:46:25.492Z,99170
2022-07-27T22:48:20.367Z,99170
2022-07-27T22:50:20.907Z,99170
2022-07-27T22:52:21.369Z,99170
2022-07-27T22:54:21.706Z,99170
2022-07-27T22:56:22.141Z,99170
2022-07-27T22:58:22.588Z,99170
2022-07-27T23:00:23.155Z,99170
2022-07-27T23:02:23.472Z,99170
2022-07-27T23:04:24.001Z,99170
2022-07-27T23:06:24.267Z,99170
2022-07-27T23:08:24.594Z,99170
2022-07-27T23:10:30.315Z,99170
2022-07-27T23:12:25.513Z,99170
2022-07-27T23:14:25.916Z,99180
2022-07-27T23:16:26.374Z,99180
2022-07-27T23:18:26.688Z,99180
2022-07-27T23:20:27.118Z,99180
2022-07-27T23:22:27.726Z,99180
2022-07-27T23:24:28.897Z,99180
2022-07-27T23:26:28.379Z,99180
2022-07-27T23:28:28.622Z,99180
2022-07-27T23:30:29.059Z,99190
2022-07-27T23:32:29.463Z,99190
2022-07-27T23:34:29.947Z,99190
2022-07-27T23:36:30.276Z,99190
2022-07-27T23:38:30.667Z,99190
2022-07-27T23:40:31.150Z,99190
2022-07-27T23:42:31.426Z,99190
2022-07-27T23:44:31.852Z,99190
2022-07-27T23:46:32.455Z,99190
2022-07-27T23:48:32.794Z,99190
2022-07-27T23:50:33.209Z,99190
2022-07-27T23:52:33.699Z,99190
2022-07-27T23:54:33.904Z,99190
2022-07-27T23:56:34.238Z,99190
2022-07-27T23:58:34.560Z,99190
